createdAt,value
2022-08-11T00:01:21.819Z,18.60
2022-08-11T00:03:56.786Z,18.50
2022-08-11T00:06:30.447Z,18.50
2022-08-11T00:09:02.110Z,18.50
2022-08-11T00:11:37.711Z,18.50
2022-08-11T00:14:19.287Z,18.40
2022-08-11T00:17:03.925Z,18.30
2022-08-11T00:20:12.252Z,18.20
2022-08-11T00:22:30.121Z,18.30
2022-08-11T00:25:02.674Z,18.20
2022-08-11T00:27:38.027Z,18.20
2022-08-11T00:30:12.237Z,18.10
2022-08-11T00:32:44.906Z,18.10
2022-08-11T00:35:54.046Z,18.10
2022-08-11T00:38:16.286Z,18.10
2022-08-11T00:40:56.509Z,18.00
2022-08-11T00:43:49.262Z,17.90
2022-08-11T00:46:40.099Z,18.00
2022-08-11T00:49:23.014Z,17.90
2022-08-11T00:52:14.783Z,17.90
2022-08-11T00:56:11.747Z,17.80
2022-08-11T00:59:34.306Z,17.80
2022-08-11T01:02:48.505Z,17.80
2022-08-11T01:05:51.717Z,17.80
2022-08-11T01:09:21.926Z,17.70
2022-08-11T01:12:36.047Z,17.70
2022-08-11T01:15:59.598Z,17.60
2022-08-11T01:20:47.915Z,17.60
2022-08-11T01:23:50.218Z,17.50
2022-08-11T01:27:20.010Z,17.60
2022-08-11T01:30:49.207Z,17.40
2022-08-11T01:34:32.653Z,17.40
2022-08-11T01:37:31.631Z,17.40
2022-08-11T01:40:58.373Z,17.30
2022-08-11T01:44:38.813Z,17.30
2022-08-11T01:47:53.090Z,17.30
2022-08-11T01:50:47.694Z,17.20
2022-08-11T01:53:40.110Z,17.20
2022-08-11T01:56:30.981Z,17.20
2022-08-11T01:59:17.659Z,17.10
2022-08-11T02:02:21.533Z,17.10
2022-08-11T02:05:00.965Z,17.10
2022-08-11T02:07:37.531Z,17.00
2022-08-11T02:10:42.317Z,17.00
2022-08-11T02:13:38.395Z,17.00
2022-08-11T02:16:34.543Z,17.00
2022-08-11T02:19:39.659Z,16.90
2022-08-11T02:22:36.386Z,16.90
2022-08-11T02:25:13.855Z,16.90
2022-08-11T02:27:54.671Z,16.80
2022-08-11T02:30:32.653Z,16.80
2022-08-11T02:33:23.307Z,16.80
2022-08-11T02:36:04.777Z,16.70
2022-08-11T02:38:43.537Z,16.80
2022-08-11T02:41:43.309Z,16.70
2022-08-11T02:44:31.223Z,16.60
2022-08-11T02:47:14.637Z,16.60
2022-08-11T02:50:03.458Z,16.60
2022-08-11T02:52:46.582Z,16.50
2022-08-11T02:55:56.485Z,16.60
2022-08-11T02:58:37.948Z,16.50
2022-08-11T03:01:18.719Z,16.50
2022-08-11T03:04:02.062Z,16.40
2022-08-11T03:06:40.119Z,16.30
2022-08-11T03:09:20.446Z,16.40
2022-08-11T03:12:24.560Z,16.40
2022-08-11T03:15:21.348Z,16.30
2022-08-11T03:18:05.575Z,16.20
2022-08-11T03:20:46.591Z,16.30
2022-08-11T03:23:30.952Z,16.30
2022-08-11T03:26:11.148Z,16.30
2022-08-11T03:28:52.946Z,16.20
2022-08-11T03:31:32.139Z,16.20
2022-08-11T03:34:08.380Z,16.00
2022-08-11T03:37:47.355Z,16.00
2022-08-11T03:40:55.006Z,16.10
2022-08-11T03:43:58.600Z,16.00
2022-08-11T03:46:52.835Z,16.00
2022-08-11T03:49:39.356Z,16.00
2022-08-11T03:52:22.850Z,16.00
2022-08-11T03:55:05.624Z,16.00
2022-08-11T03:58:46.194Z,15.90
2022-08-11T04:02:04.959Z,15.90
2022-08-11T04:05:42.535Z,15.80
2022-08-11T04:09:16.934Z,15.80
2022-08-11T04:12:45.618Z,15.70
2022-08-11T04:16:11.598Z,15.70
2022-08-11T04:19:49.877Z,15.80
2022-08-11T04:22:51.351Z,15.70
2022-08-11T04:25:58.057Z,15.70
2022-08-11T04:29:15.239Z,15.70
2022-08-11T04:32:05.951Z,15.70
2022-08-11T04:35:18.853Z,15.60
2022-08-11T04:38:34.073Z,15.60
2022-08-11T04:42:09.887Z,15.60
2022-08-11T04:45:36.254Z,15.60
2022-08-11T04:49:06.568Z,15.60
2022-08-11T04:52:38.283Z,15.60
2022-08-11T04:56:03.416Z,15.60
2022-08-11T04:59:27.463Z,15.60
2022-08-11T05:03:00.093Z,15.60
2022-08-11T05:06:07.922Z,15.50
2022-08-11T05:09:25.233Z,15.60
2022-08-11T05:12:27.231Z,15.60
2022-08-11T05:15:16.268Z,15.60
2022-08-11T05:18:15.710Z,15.60
2022-08-11T05:21:09.734Z,15.50
2022-08-11T05:24:02.522Z,15.60
2022-08-11T05:27:02.132Z,15.50
2022-08-11T05:30:01.634Z,15.50
2022-08-11T05:33:00.984Z,15.50
2022-08-11T05:36:00.590Z,15.60
2022-08-11T05:38:51.847Z,15.60
2022-08-11T05:41:42.371Z,15.60
2022-08-11T05:44:37.405Z,15.60
2022-08-11T05:47:25.111Z,15.60
2022-08-11T05:50:13.565Z,15.70
2022-08-11T05:53:09.340Z,15.60
2022-08-11T05:56:02.480Z,15.70
2022-08-11T05:58:42.319Z,15.80
2022-08-11T06:01:15.793Z,15.80
2022-08-11T06:04:04.463Z,15.80
2022-08-11T06:06:33.992Z,15.80
2022-08-11T06:09:03.794Z,15.90
2022-08-11T06:11:44.168Z,15.90
2022-08-11T06:14:16.643Z,15.90
2022-08-11T06:16:52.043Z,16.00
2022-08-11T06:19:25.014Z,16.00
2022-08-11T06:21:55.842Z,16.10
2022-08-11T06:24:25.168Z,16.10
2022-08-11T06:27:13.546Z,16.20
2022-08-11T06:29:54.716Z,16.20
2022-08-11T06:32:30.396Z,16.30
2022-08-11T06:35:23.354Z,16.30
2022-08-11T06:38:16.320Z,16.40
2022-08-11T06:41:09.694Z,16.50
2022-08-11T06:43:55.198Z,16.50
2022-08-11T06:46:31.796Z,16.60
2022-08-11T06:49:04.815Z,16.70
2022-08-11T06:51:37.269Z,16.70
2022-08-11T06:54:14.824Z,16.80
2022-08-11T06:57:28.328Z,16.90
2022-08-11T07:00:10.149Z,17.00
2022-08-11T07:02:49.719Z,17.00
2022-08-11T07:05:28.467Z,17.10
2022-08-11T07:09:04.034Z,17.20
2022-08-11T07:12:52.322Z,17.30
2022-08-11T07:16:10.667Z,17.40
2022-08-11T07:18:54.849Z,17.60
2022-08-11T07:22:01.794Z,17.70
2022-08-11T07:24:59.316Z,17.90
2022-08-11T07:28:04.248Z,18.20
2022-08-11T07:30:40.436Z,18.40
2022-08-11T07:33:19.022Z,18.70
2022-08-11T07:36:04.707Z,18.70
2022-08-11T07:38:46.066Z,18.90
2022-08-11T07:41:18.536Z,18.90
2022-08-11T07:43:51.670Z,18.90
2022-08-11T07:46:39.303Z,19.00
2022-08-11T07:49:28.600Z,19.20
2022-08-11T07:52:15.342Z,19.20
2022-08-11T07:54:51.158Z,19.40
2022-08-11T07:58:13.833Z,19.60
2022-08-11T08:00:51.645Z,19.70
2022-08-11T08:03:39.527Z,19.80
2022-08-11T08:06:41.695Z,19.80
2022-08-11T08:09:30.728Z,19.80
2022-08-11T08:12:22.380Z,20.10
2022-08-11T08:15:09.814Z,20.30
2022-08-11T08:18:10.070Z,20.40
2022-08-11T08:20:50.758Z,20.30
2022-08-11T08:23:33.436Z,20.40
2022-08-11T08:26:05.581Z,20.70
2022-08-11T08:28:36.475Z,20.80
2022-08-11T08:31:05.032Z,21.00
2022-08-11T08:33:34.463Z,21.00
2022-08-11T08:36:14.856Z,21.10
2022-08-11T08:38:50.398Z,21.40
2022-08-11T08:41:24.353Z,21.30
2022-08-11T08:44:27.366Z,21.20
2022-08-11T08:46:55.505Z,21.40
2022-08-11T08:49:33.642Z,21.50
2022-08-11T08:52:25.346Z,21.60
2022-08-11T08:55:05.649Z,21.70
2022-08-11T08:57:39.591Z,21.80
2022-08-11T09:00:12.495Z,21.90
2022-08-11T09:02:46.113Z,21.90
2022-08-11T09:05:18.551Z,22.20
2022-08-11T09:07:51.592Z,22.30
2022-08-11T09:10:22.904Z,22.40
2022-08-11T09:12:53.112Z,22.70
2022-08-11T09:15:26.193Z,22.80
2022-08-11T09:18:06.127Z,22.60
2022-08-11T09:20:37.483Z,22.60
2022-08-11T09:24:08.930Z,22.50
2022-08-11T09:26:34.970Z,22.40
2022-08-11T09:29:05.558Z,22.40
2022-08-11T09:31:40.146Z,22.60
2022-08-11T09:34:11.687Z,22.60
2022-08-11T09:37:02.170Z,22.50
2022-08-11T09:39:51.215Z,22.60
2022-08-11T09:42:23.951Z,22.80
2022-08-11T09:44:53.842Z,22.70
2022-08-11T09:47:29.690Z,22.60
2022-08-11T09:50:02.459Z,22.40
2022-08-11T09:52:37.171Z,22.80
2022-08-11T09:55:11.370Z,22.90
2022-08-11T09:58:00.127Z,23.00
2022-08-11T10:00:37.376Z,23.00
2022-08-11T10:03:13.812Z,23.00
2022-08-11T10:06:08.264Z,23.70
2022-08-11T10:08:41.992Z,24.10
2022-08-11T10:11:15.547Z,24.60
2022-08-11T10:14:31.430Z,24.40
2022-08-11T10:16:54.839Z,24.50
2022-08-11T10:19:26.277Z,25.10
2022-08-11T10:22:14.182Z,25.30
2022-08-11T10:28:29.010Z,26.10
2022-08-11T10:31:22.519Z,26.10
2022-08-11T10:34:04.002Z,26.10
2022-08-11T10:36:43.060Z,26.20
2022-08-11T10:39:18.248Z,26.30
2022-08-11T10:42:12.249Z,26.30
2022-08-11T10:44:47.199Z,25.90
2022-08-11T10:47:35.003Z,25.90
2022-08-11T10:50:26.427Z,26.30
2022-08-11T10:53:17.989Z,26.00
2022-08-11T10:56:06.345Z,25.90
2022-08-11T10:58:48.665Z,26.00
2022-08-11T11:01:28.591Z,26.30
2022-08-11T11:04:02.474Z,26.40
2022-08-11T11:06:44.943Z,26.20
2022-08-11T11:09:20.704Z,26.20
2022-08-11T11:12:12.537Z,26.20
2022-08-11T11:15:02.810Z,26.50
2022-08-11T11:17:57.749Z,26.50
2022-08-11T11:20:36.489Z,26.70
2022-08-11T11:23:13.669Z,26.80
2022-08-11T11:26:10.403Z,26.90
2022-08-11T11:29:22.542Z,26.90
2022-08-11T11:32:17.821Z,26.90
2022-08-11T11:35:32.084Z,27.10
2022-08-11T11:38:04.886Z,27.40
2022-08-11T11:40:37.557Z,27.70
2022-08-11T11:43:08.602Z,27.80
2022-08-11T11:45:38.071Z,27.90
2022-08-11T11:48:07.761Z,27.90
2022-08-11T11:50:39.440Z,28.00
2022-08-11T11:53:11.241Z,28.20
2022-08-11T11:55:40.608Z,28.00
2022-08-11T11:58:28.600Z,27.90
2022-08-11T12:01:17.664Z,27.90
2022-08-11T12:03:51.342Z,28.00
2022-08-11T12:06:25.427Z,28.10
2022-08-11T12:08:58.968Z,28.40
2022-08-11T12:11:48.103Z,28.50
2022-08-11T12:14:22.583Z,28.50
2022-08-11T12:16:52.001Z,28.60
2022-08-11T12:19:26.311Z,28.60
2022-08-11T12:22:15.961Z,28.50
2022-08-11T12:25:04.672Z,28.50
2022-08-11T12:27:33.672Z,28.60
2022-08-11T12:30:10.903Z,28.60
2022-08-11T12:32:42.242Z,28.70
2022-08-11T12:35:11.681Z,28.70
2022-08-11T12:37:45.937Z,28.60
2022-08-11T12:41:03.466Z,28.70
2022-08-11T12:43:57.137Z,28.70
2022-08-11T12:46:34.124Z,28.50
2022-08-11T12:49:31.087Z,28.40
2022-08-11T12:52:12.927Z,28.50
2022-08-11T12:54:52.838Z,28.70
2022-08-11T12:57:47.721Z,28.50
2022-08-11T13:00:36.361Z,28.20
2022-08-11T13:03:28.962Z,28.10
2022-08-11T13:06:00.148Z,28.40
2022-08-11T13:08:32.775Z,28.60
2022-08-11T13:11:21.503Z,28.80
2022-08-11T13:13:57.726Z,28.90
2022-08-11T13:16:31.993Z,29.00
2022-08-11T13:19:02.864Z,29.00
2022-08-11T13:21:32.891Z,28.90
2022-08-11T13:24:03.823Z,28.80
2022-08-11T13:26:47.772Z,28.70
2022-08-11T13:29:24.289Z,28.80
2022-08-11T13:31:57.058Z,28.90
2022-08-11T13:34:31.546Z,28.70
2022-08-11T13:37:05.385Z,28.60
2022-08-11T13:39:37.333Z,28.60
2022-08-11T13:42:07.652Z,28.70
2022-08-11T13:44:40.029Z,28.90
2022-08-11T13:47:13.227Z,29.40
2022-08-11T13:49:45.838Z,29.70
2022-08-11T13:52:17.996Z,30.00
2022-08-11T13:54:53.565Z,30.40
2022-08-11T13:58:09.072Z,30.50
2022-08-11T14:00:27.712Z,30.60
2022-08-11T14:02:59.424Z,30.90
2022-08-11T14:05:35.450Z,31.30
2022-08-11T14:08:38.086Z,31.10
2022-08-11T14:12:23.071Z,31.20
2022-08-11T14:14:27.668Z,31.60
2022-08-11T14:16:58.939Z,31.80
2022-08-11T14:19:30.542Z,32.00
2022-08-11T14:22:08.112Z,32.40
2022-08-11T14:24:41.130Z,32.60
2022-08-11T14:28:15.411Z,33.10
2022-08-11T14:30:02.819Z,33.00
2022-08-11T14:32:32.544Z,33.20
2022-08-11T14:35:03.339Z,33.30
2022-08-11T14:37:33.656Z,33.10
2022-08-11T14:40:24.144Z,33.40
2022-08-11T14:43:19.771Z,33.70
2022-08-11T14:46:26.695Z,33.70
2022-08-11T14:48:55.823Z,33.80
2022-08-11T14:51:25.340Z,33.80
2022-08-11T14:54:16.220Z,33.50
2022-08-11T14:56:44.929Z,33.00
2022-08-11T14:59:15.310Z,32.40
2022-08-11T15:02:03.065Z,32.30
2022-08-11T15:04:36.122Z,32.30
2022-08-11T15:07:16.660Z,32.20
2022-08-11T15:12:41.982Z,31.90
2022-08-11T15:15:30.222Z,31.80
2022-08-11T15:18:04.358Z,31.40
2022-08-11T15:20:53.818Z,31.30
2022-08-11T15:23:40.477Z,31.00
2022-08-11T15:26:17.221Z,31.00
2022-08-11T15:29:08.725Z,30.70
2022-08-11T15:31:57.618Z,30.50
2022-08-11T15:34:47.826Z,30.50
2022-08-11T15:37:31.549Z,30.50
2022-08-11T15:40:34.536Z,30.20
2022-08-11T15:43:32.253Z,30.00
2022-08-11T15:46:10.818Z,30.30
2022-08-11T15:48:48.508Z,29.60
2022-08-11T15:51:29.003Z,29.40
2022-08-11T15:54:08.560Z,29.80
2022-08-11T15:56:43.906Z,29.70
2022-08-11T15:59:41.870Z,29.50
2022-08-11T16:02:33.691Z,29.50
2022-08-11T16:05:08.115Z,29.50
2022-08-11T16:07:40.645Z,29.20
2022-08-11T16:10:19.094Z,29.20
2022-08-11T16:13:23.707Z,29.10
2022-08-11T16:16:15.568Z,29.20
2022-08-11T16:18:52.654Z,29.20
2022-08-11T16:21:34.638Z,28.90
2022-08-11T16:24:09.474Z,29.10
2022-08-11T16:27:10.505Z,28.90
2022-08-11T16:29:47.896Z,29.00
2022-08-11T16:32:23.678Z,28.80
2022-08-11T16:35:16.134Z,28.50
2022-08-11T16:38:06.571Z,28.50
2022-08-11T16:40:36.916Z,28.40
2022-08-11T16:43:27.685Z,28.10
2022-08-11T16:46:15.630Z,28.30
2022-08-11T16:48:50.634Z,28.30
2022-08-11T16:51:20.973Z,28.40
2022-08-11T16:54:04.339Z,28.30
2022-08-11T16:56:43.065Z,28.30
2022-08-11T16:59:19.966Z,28.20
2022-08-11T17:01:54.253Z,28.00
2022-08-11T17:04:54.880Z,28.00
2022-08-11T17:07:44.282Z,28.00
2022-08-11T17:10:53.396Z,28.00
2022-08-11T17:13:36.587Z,27.90
2022-08-11T17:16:12.716Z,27.80
2022-08-11T17:18:59.257Z,27.80
2022-08-11T17:21:35.067Z,27.70
2022-08-11T17:24:09.441Z,27.70
2022-08-11T17:26:57.130Z,27.70
2022-08-11T17:29:30.648Z,27.60
2022-08-11T17:32:21.112Z,27.60
2022-08-11T17:35:11.178Z,27.60
2022-08-11T17:37:44.263Z,27.60
2022-08-11T17:40:18.638Z,27.60
2022-08-11T17:43:05.794Z,27.60
2022-08-11T17:45:56.578Z,27.60
2022-08-11T17:48:27.999Z,27.60
2022-08-11T17:51:00.424Z,27.50
2022-08-11T17:54:13.424Z,27.40
2022-08-11T17:57:00.079Z,27.40
2022-08-11T17:59:49.304Z,27.40
2022-08-11T18:02:40.428Z,27.40
2022-08-11T18:05:13.530Z,27.30
2022-08-11T18:08:04.327Z,27.20
2022-08-11T18:10:54.294Z,27.20
2022-08-11T18:13:43.660Z,27.10
2022-08-11T18:16:30.979Z,27.00
2022-08-11T18:19:18.099Z,26.90
2022-08-11T18:22:14.959Z,26.90
2022-08-11T18:25:08.964Z,26.90
2022-08-11T18:28:02.962Z,26.80
2022-08-11T18:31:03.458Z,26.60
2022-08-11T18:34:14.250Z,26.50
2022-08-11T18:37:05.958Z,26.50
2022-08-11T18:40:00.746Z,26.30
2022-08-11T18:42:51.461Z,26.30
2022-08-11T18:45:45.641Z,26.10
2022-08-11T18:48:39.677Z,26.10
2022-08-11T18:51:30.897Z,26.10
2022-08-11T18:54:28.927Z,26.00
2022-08-11T18:57:21.289Z,25.90
2022-08-11T19:00:10.910Z,25.80
2022-08-11T19:03:00.364Z,25.60
2022-08-11T19:06:06.127Z,25.50
2022-08-11T19:09:05.245Z,25.40
2022-08-11T19:11:53.534Z,25.30
2022-08-11T19:14:43.884Z,25.20
2022-08-11T19:17:44.587Z,25.10
2022-08-11T19:20:38.247Z,25.00
2022-08-11T19:23:29.186Z,25.00
2022-08-11T19:26:17.390Z,24.90
2022-08-11T19:29:07.432Z,24.80
2022-08-11T19:31:55.744Z,24.70
2022-08-11T19:34:43.963Z,24.60
2022-08-11T19:37:32.177Z,24.60
2022-08-11T19:40:24.085Z,24.50
2022-08-11T19:43:18.778Z,24.50
2022-08-11T19:46:17.528Z,24.50
2022-08-11T19:49:08.410Z,24.20
2022-08-11T19:51:56.776Z,24.10
2022-08-11T19:54:48.711Z,24.00
2022-08-11T19:57:39.927Z,23.90
2022-08-11T20:00:31.826Z,23.80
2022-08-11T20:03:19.520Z,23.80
2022-08-11T20:06:07.416Z,23.70
2022-08-11T20:08:59.096Z,23.70
2022-08-11T20:11:51.846Z,23.60
2022-08-11T20:14:41.385Z,23.70
2022-08-11T20:17:31.135Z,23.50
2022-08-11T20:20:20.487Z,23.30
2022-08-11T20:23:09.537Z,23.20
2022-08-11T20:26:08.564Z,23.20
2022-08-11T20:29:09.121Z,23.10
2022-08-11T20:31:57.108Z,23.10
2022-08-11T20:34:43.890Z,23.00
2022-08-11T20:37:31.980Z,22.90
2022-08-11T20:40:23.866Z,22.80
2022-08-11T20:44:04.974Z,22.70
2022-08-11T20:46:21.369Z,22.70
2022-08-11T20:49:10.399Z,22.60
2022-08-11T20:52:01.081Z,22.60
2022-08-11T20:54:54.709Z,22.60
2022-08-11T20:58:00.163Z,22.40
2022-08-11T21:00:50.979Z,22.40
2022-08-11T21:03:45.265Z,22.20
2022-08-11T21:06:46.178Z,22.10
2022-08-11T21:12:43.260Z,22.10
2022-08-11T21:15:47.197Z,22.10
2022-08-11T21:18:41.843Z,21.80
2022-08-11T21:21:45.391Z,21.90
2022-08-11T21:24:37.145Z,21.80
2022-08-11T21:27:34.018Z,21.70
2022-08-11T21:30:22.523Z,21.50
2022-08-11T21:33:10.359Z,21.40
2022-08-11T21:35:58.657Z,21.50
2022-08-11T21:38:48.041Z,21.50
2022-08-11T21:41:36.349Z,21.40
2022-08-11T21:44:26.644Z,21.30
2022-08-11T21:47:21.038Z,21.20
2022-08-11T21:50:22.515Z,21.10
2022-08-11T21:53:11.232Z,21.10
2022-08-11T21:55:58.815Z,21.10
2022-08-11T21:58:45.789Z,21.10
2022-08-11T22:01:34.443Z,20.90
2022-08-11T22:04:22.666Z,20.90
2022-08-11T22:07:10.054Z,20.70
2022-08-11T22:09:58.412Z,20.70
2022-08-11T22:12:45.471Z,20.60
2022-08-11T22:15:31.901Z,20.60
2022-08-11T22:18:20.444Z,20.70
2022-08-11T22:21:09.370Z,20.50
2022-08-11T22:24:02.617Z,20.50
2022-08-11T22:26:54.825Z,20.50
2022-08-11T22:29:51.208Z,20.40
2022-08-11T22:32:42.031Z,20.40
2022-08-11T22:35:30.320Z,20.30
2022-08-11T22:38:18.565Z,20.30
2022-08-11T22:41:05.222Z,20.20
2022-08-11T22:43:53.133Z,20.00
2022-08-11T22:46:41.296Z,19.90
2022-08-11T22:49:30.565Z,19.90
2022-08-11T22:52:40.536Z,19.90
2022-08-11T22:55:28.894Z,19.80
2022-08-11T22:58:16.080Z,19.80
2022-08-11T23:01:04.395Z,19.80
2022-08-11T23:03:52.147Z,19.70
2022-08-11T23:06:40.302Z,19.70
2022-08-11T23:09:27.591Z,19.70
2022-08-11T23:12:16.197Z,19.70
2022-08-11T23:15:03.633Z,19.70
2022-08-11T23:17:51.486Z,19.50
2022-08-11T23:20:41.654Z,19.50
2022-08-11T23:23:35.959Z,19.30
2022-08-11T23:26:23.298Z,19.30
2022-08-11T23:29:11.411Z,19.30
2022-08-11T23:31:58.594Z,19.30
2022-08-11T23:35:04.043Z,19.20
2022-08-11T23:38:00.193Z,19.10
2022-08-11T23:40:46.855Z,19.10
2022-08-11T23:43:38.868Z,19.10
2022-08-11T23:46:25.493Z,19.10
2022-08-11T23:49:17.836Z,19.00
2022-08-11T23:52:07.666Z,19.00
2022-08-11T23:54:54.933Z,19.00
2022-08-11T23:57:47.985Z,18.90
